createdAt,value
2019-05-17T03:54:22.918Z,13.44
2019-05-17T03:56:54.525Z,13.45
2019-05-17T03:59:25.631Z,13.42
2019-05-17T04:01:56.845Z,13.41
2019-05-17T04:04:28.028Z,13.37
2019-05-17T04:06:59.203Z,13.36
2019-05-17T04:09:32.790Z,13.29
2019-05-17T04:12:03.209Z,13.15
2019-05-17T04:14:34.340Z,13.14
2019-05-17T04:17:05.496Z,13.15
2019-05-17T04:19:36.668Z,13.17
2019-05-17T04:22:07.723Z,13.20
2019-05-17T04:24:38.898Z,13.26
2019-05-17T04:27:13.395Z,13.37
2019-05-17T04:29:42.929Z,13.48
2019-05-17T04:32:14.139Z,13.58
2019-05-17T04:34:45.326Z,13.70
2019-05-17T04:37:16.457Z,13.76
2019-05-17T04:39:47.653Z,13.81
2019-05-17T04:42:18.974Z,13.91
2019-05-17T04:44:52.725Z,13.96
2019-05-17T04:50:54.465Z,14.13
2019-05-17T04:53:25.614Z,14.12
2019-05-17T04:55:56.861Z,14.19
2019-05-17T04:58:28.981Z,14.32
2019-05-17T05:01:03.668Z,14.54
2019-05-17T05:03:33.005Z,14.78
2019-05-17T05:06:04.143Z,15.09
2019-05-17T05:08:35.782Z,15.31
2019-05-17T05:11:06.941Z,15.21
2019-05-17T05:13:38.096Z,15.13
2019-05-17T05:16:10.191Z,15.03
2019-05-17T05:18:42.079Z,15.04
2019-05-17T05:21:13.361Z,15.17
2019-05-17T05:23:44.773Z,15.26
2019-05-17T05:26:15.906Z,15.53
2019-05-17T05:28:49.585Z,15.90
2019-05-17T05:31:19.912Z,16.10
2019-05-17T05:33:52.221Z,16.04
2019-05-17T05:36:23.607Z,16.23
2019-05-17T05:38:54.763Z,16.45
2019-05-17T05:41:25.903Z,16.89
2019-05-17T05:43:57.059Z,17.55
2019-05-17T05:46:28.203Z,18.02
2019-05-17T05:49:01.560Z,18.58
2019-05-17T05:51:32.225Z,18.80
2019-05-17T05:54:04.350Z,19.14
2019-05-17T05:56:36.454Z,19.30
2019-05-17T05:59:07.802Z,19.66
2019-05-17T06:01:38.927Z,19.74
2019-05-17T06:04:11.785Z,19.90
2019-05-17T06:06:44.094Z,20.19
2019-05-17T06:09:15.328Z,20.26
2019-05-17T06:11:46.457Z,20.48
2019-05-17T06:14:17.587Z,20.47
2019-05-17T06:16:48.917Z,20.31
2019-05-17T06:19:22.249Z,20.14
2019-05-17T06:21:52.851Z,20.18
2019-05-17T06:24:23.989Z,20.17
2019-05-17T06:26:55.166Z,19.92
2019-05-17T06:29:26.401Z,19.91
2019-05-17T06:31:57.505Z,20.11
2019-05-17T06:34:28.637Z,20.18
2019-05-17T06:37:02.063Z,19.97
2019-05-17T06:39:35.358Z,19.78
2019-05-17T06:42:08.786Z,19.87
2019-05-17T06:44:41.715Z,19.68
2019-05-17T06:47:13.048Z,19.77
2019-05-17T06:49:44.199Z,20.01
2019-05-17T06:52:15.275Z,19.58
2019-05-17T06:54:46.381Z,18.55
2019-05-17T06:57:18.019Z,18.18
2019-05-17T06:59:49.203Z,18.17
2019-05-17T07:02:20.323Z,17.88
2019-05-17T07:04:52.705Z,17.43
2019-05-17T07:07:27.181Z,17.40
2019-05-17T07:10:00.788Z,17.45
2019-05-17T07:12:33.060Z,17.43
2019-05-17T07:15:04.780Z,17.62
2019-05-17T07:17:35.899Z,17.87
2019-05-17T07:20:07.102Z,18.06
2019-05-17T07:22:40.857Z,18.26
2019-05-17T07:25:11.391Z,18.36
2019-05-17T07:27:45.892Z,18.43
2019-05-17T07:30:15.948Z,18.63
2019-05-17T07:32:49.603Z,18.95
2019-05-17T07:35:19.984Z,18.95
2019-05-17T07:37:51.408Z,19.06
2019-05-17T07:40:22.648Z,19.14
2019-05-17T07:43:07.064Z,19.32
2019-05-17T07:45:26.727Z,19.19
2019-05-17T07:48:00.013Z,19.12
2019-05-17T07:50:30.708Z,19.28
2019-05-17T07:53:02.136Z,19.48
2019-05-17T07:55:33.257Z,19.51
2019-05-17T07:58:04.404Z,19.07
2019-05-17T08:00:35.523Z,18.71
2019-05-17T08:03:06.751Z,18.65
2019-05-17T08:05:40.058Z,18.84
2019-05-17T08:08:10.962Z,18.48
2019-05-17T08:10:42.098Z,18.41
2019-05-17T08:13:25.901Z,18.78
2019-05-17T08:15:46.261Z,18.37
2019-05-17T08:18:17.405Z,18.29
2019-05-17T08:20:51.320Z,17.97
2019-05-17T08:23:22.496Z,18.00
2019-05-17T08:25:56.306Z,18.28
2019-05-17T08:28:27.251Z,18.47
2019-05-17T08:31:01.140Z,18.73
2019-05-17T08:33:32.561Z,18.59
2019-05-17T08:36:03.704Z,18.44
2019-05-17T08:38:34.857Z,18.99
2019-05-17T08:41:05.967Z,19.43
2019-05-17T08:43:45.786Z,19.55
2019-05-17T08:46:10.552Z,19.78
2019-05-17T08:48:42.322Z,19.60
2019-05-17T08:51:13.485Z,19.56
2019-05-17T08:53:44.606Z,19.45
2019-05-17T08:56:15.752Z,19.48
2019-05-17T08:58:46.930Z,19.24
2019-05-17T09:01:19.589Z,18.93
2019-05-17T09:03:50.949Z,18.58
2019-05-17T09:06:29.332Z,18.65
2019-05-17T09:09:00.949Z,18.58
2019-05-17T09:11:33.741Z,18.71
2019-05-17T09:14:05.228Z,18.89
2019-05-17T09:16:36.381Z,19.14
2019-05-17T09:19:09.944Z,19.21
2019-05-17T09:21:40.380Z,19.51
2019-05-17T09:24:11.482Z,19.48
2019-05-17T09:26:42.638Z,19.60
2019-05-17T09:29:13.775Z,19.80
2019-05-17T09:31:44.879Z,20.01
2019-05-17T09:34:16.032Z,20.33
2019-05-17T09:36:49.578Z,20.22
2019-05-17T09:39:20.181Z,20.10
2019-05-17T09:41:51.326Z,20.92
2019-05-17T09:44:23.768Z,21.57
2019-05-17T09:46:56.002Z,21.99
2019-05-17T09:49:27.159Z,22.22
2019-05-17T09:52:00.167Z,22.47
2019-05-17T09:54:41.621Z,22.50
2019-05-17T09:57:04.075Z,22.64
2019-05-17T09:59:36.673Z,22.92
2019-05-17T10:02:09.500Z,23.07
2019-05-17T10:04:40.786Z,23.87
2019-05-17T10:07:11.915Z,24.04
2019-05-17T10:09:43.012Z,24.57
2019-05-17T10:12:14.130Z,24.42
2019-05-17T10:14:45.258Z,24.00
2019-05-17T10:17:16.375Z,23.85
2019-05-17T10:19:47.645Z,23.88
2019-05-17T10:22:20.060Z,23.46
2019-05-17T10:24:52.259Z,22.77
2019-05-17T10:27:23.440Z,22.68
2019-05-17T10:29:54.568Z,22.16
2019-05-17T10:32:25.833Z,22.46
2019-05-17T10:34:56.988Z,22.50
2019-05-17T10:37:30.256Z,23.00
2019-05-17T10:40:01.950Z,23.24
2019-05-17T10:42:33.103Z,23.22
2019-05-17T10:45:05.980Z,23.33
2019-05-17T10:47:39.464Z,23.52
2019-05-17T10:50:11.065Z,23.81
2019-05-17T10:52:42.308Z,24.00
2019-05-17T10:55:13.539Z,22.92
2019-05-17T10:57:44.698Z,23.32
2019-05-17T11:00:16.778Z,22.95
2019-05-17T11:02:47.928Z,23.09
2019-05-17T11:05:20.787Z,23.47
2019-05-17T11:07:51.959Z,22.98
2019-05-17T11:10:24.167Z,23.50
2019-05-17T11:12:55.337Z,23.25
2019-05-17T11:15:27.471Z,22.39
2019-05-17T11:17:58.590Z,22.17
2019-05-17T11:20:29.722Z,22.47
2019-05-17T11:23:00.816Z,22.54
2019-05-17T11:25:31.985Z,22.45
2019-05-17T11:28:04.590Z,22.58
2019-05-17T11:30:35.847Z,22.67
2019-05-17T11:33:06.943Z,23.21
2019-05-17T11:35:38.061Z,22.30
2019-05-17T11:38:09.195Z,22.40
2019-05-17T11:40:40.356Z,22.14
2019-05-17T11:43:11.671Z,22.35
2019-05-17T11:45:42.806Z,22.73
2019-05-17T11:48:13.973Z,22.94
2019-05-17T11:50:45.125Z,23.25
2019-05-17T11:53:16.182Z,23.12
2019-05-17T11:55:47.358Z,23.52
2019-05-17T11:58:18.507Z,23.96
2019-05-17T12:00:49.635Z,24.28
2019-05-17T12:03:20.731Z,24.51
2019-05-17T12:05:51.876Z,23.97
2019-05-17T12:08:36.767Z,23.31
2019-05-17T12:11:07.893Z,23.43
2019-05-17T12:13:39.033Z,23.62
2019-05-17T12:16:10.182Z,22.83
2019-05-17T12:18:41.336Z,22.44
2019-05-17T12:21:12.558Z,21.48
2019-05-17T12:23:43.699Z,21.21
2019-05-17T12:26:14.822Z,20.59
2019-05-17T12:28:46.014Z,20.53
2019-05-17T12:31:17.097Z,20.28
2019-05-17T12:33:48.334Z,20.28
2019-05-17T12:36:19.450Z,20.00
2019-05-17T12:38:50.575Z,19.54
2019-05-17T12:41:21.703Z,19.54
2019-05-17T12:43:53.021Z,18.74
2019-05-17T12:46:24.168Z,18.15
2019-05-17T12:48:55.650Z,18.16
2019-05-17T12:51:26.789Z,17.76
2019-05-17T12:53:57.935Z,17.71
2019-05-17T12:56:29.117Z,17.78
2019-05-17T12:59:00.255Z,17.67
2019-05-17T13:01:31.362Z,17.67
2019-05-17T13:04:02.662Z,17.82
2019-05-17T13:06:34.139Z,18.09
2019-05-17T13:09:06.254Z,18.38
2019-05-17T13:11:37.378Z,18.73
2019-05-17T13:14:09.525Z,18.84
2019-05-17T13:16:40.677Z,19.25
2019-05-17T13:19:11.791Z,19.69
2019-05-17T13:21:42.969Z,20.10
2019-05-17T13:24:14.184Z,20.74
2019-05-17T13:26:45.314Z,21.23
2019-05-17T13:29:16.439Z,21.61
2019-05-17T13:31:47.678Z,21.69
2019-05-17T13:34:18.812Z,21.84
2019-05-17T13:36:51.120Z,22.04
2019-05-17T13:39:22.235Z,22.09
2019-05-17T13:41:53.426Z,21.94
2019-05-17T13:44:24.608Z,21.72
2019-05-17T13:46:55.761Z,21.89
2019-05-17T13:49:26.888Z,22.27
2019-05-17T13:51:58.006Z,22.86
2019-05-17T13:54:29.183Z,24.41
2019-05-17T13:57:00.424Z,25.21
2019-05-17T13:59:31.657Z,25.87
2019-05-17T14:02:02.971Z,25.15
2019-05-17T14:04:34.199Z,24.94
2019-05-17T14:07:06.260Z,24.53
2019-05-17T14:09:37.418Z,25.06
2019-05-17T14:12:08.939Z,25.71
2019-05-17T14:14:41.013Z,26.75
2019-05-17T14:17:13.534Z,26.28
2019-05-17T14:19:44.681Z,26.08
2019-05-17T14:22:15.838Z,25.55
2019-05-17T14:24:47.115Z,26.53
2019-05-17T14:27:18.297Z,27.85
2019-05-17T14:29:49.484Z,28.03
2019-05-17T14:32:20.630Z,29.56
2019-05-17T14:34:51.787Z,30.47
2019-05-17T14:37:23.068Z,30.29
2019-05-17T14:39:54.221Z,30.93
2019-05-17T14:42:25.383Z,29.89
2019-05-17T14:44:56.555Z,30.97
2019-05-17T14:47:27.770Z,31.73
2019-05-17T14:49:58.918Z,31.78
2019-05-17T14:52:30.137Z,32.66
2019-05-17T14:55:01.259Z,32.89
2019-05-17T14:57:32.396Z,30.12
2019-05-17T15:00:07.528Z,29.65
2019-05-17T15:02:43.484Z,30.12
2019-05-17T15:05:15.215Z,28.87
2019-05-17T15:07:46.614Z,27.47
2019-05-17T15:10:17.789Z,27.02
2019-05-17T15:12:49.982Z,27.87
2019-05-17T15:15:28.484Z,28.73
2019-05-17T15:17:54.190Z,30.09
2019-05-17T15:20:25.368Z,31.22
2019-05-17T15:22:56.489Z,32.07
2019-05-17T15:25:27.584Z,32.29
2019-05-17T15:27:58.728Z,33.60
2019-05-17T15:30:30.085Z,32.41
2019-05-17T15:33:01.352Z,32.62
2019-05-17T15:35:32.499Z,33.78
2019-05-17T15:38:03.752Z,34.39
2019-05-17T15:40:35.049Z,34.78
2019-05-17T15:43:06.241Z,34.42
2019-05-17T15:45:37.334Z,34.77
2019-05-17T15:48:08.458Z,35.49
2019-05-17T15:50:39.608Z,35.93
2019-05-17T15:53:10.724Z,36.00
2019-05-17T15:55:41.982Z,35.95
2019-05-17T15:58:13.111Z,35.08
2019-05-17T16:00:44.322Z,35.26
2019-05-17T16:03:15.460Z,35.99
2019-05-17T16:05:46.695Z,36.02
2019-05-17T16:08:18.060Z,35.53
2019-05-17T16:10:49.245Z,34.75
2019-05-17T16:13:20.558Z,36.13
2019-05-17T16:15:51.967Z,35.87
2019-05-17T16:18:24.321Z,36.29
2019-05-17T16:20:55.426Z,36.52
2019-05-17T16:23:26.612Z,36.80
2019-05-17T16:25:57.766Z,37.25
2019-05-17T16:28:29.011Z,36.83
2019-05-17T16:31:03.404Z,36.85
2019-05-17T16:33:36.109Z,37.21
2019-05-17T16:36:07.288Z,37.31
2019-05-17T16:38:38.931Z,37.19
2019-05-17T16:41:11.613Z,37.48
2019-05-17T16:43:42.742Z,37.74
2019-05-17T16:46:13.929Z,37.75
2019-05-17T16:48:45.236Z,37.16
2019-05-17T16:51:19.719Z,37.17
2019-05-17T16:53:51.587Z,36.53
2019-05-17T16:56:23.588Z,36.15
2019-05-17T16:58:54.811Z,36.18
2019-05-17T17:01:26.676Z,35.89
2019-05-17T17:03:58.953Z,34.98
2019-05-17T17:06:31.909Z,32.27
2019-05-17T17:09:03.184Z,33.40
2019-05-17T17:11:35.139Z,34.24
2019-05-17T17:14:09.521Z,33.86
2019-05-17T17:16:44.577Z,34.06
2019-05-17T17:19:19.465Z,34.27
